Time;durP1;ratioP1;P1;durP2;ratioP2;P2;SDS_P1;SDS_P2;PMS_P1;PMS_P2;Temp;Humidity;BMP_temperature;BMP_pressure;BME280_temperature;BME280_humidity;BME280_pressure;Samples;Min_cycle;Max_cycle;Signal;HPM_P1;HPM_P2
2023/07/17 00:02:42;;;;;;;11.38;5.08;;;;;;;21.48;65.95;100663.76;5051324;57;1138789;-69
2023/07/17 00:07:47;;;;;;;4.97;4.10;;;;;;;21.50;66.26;100663.91;5041542;57;1140884;-69
2023/07/17 00:12:53;;;;;;;5.58;4.03;;;;;;;21.52;66.56;100666.41;5042220;57;1138706;-67
2023/07/17 00:17:59;;;;;;;4.80;3.62;;;;;;;21.50;66.80;100659.03;5062223;57;1138857;-65
2023/07/17 00:23:05;;;;;;;5.67;3.22;;;;;;;21.38;66.52;100670.27;5005580;57;1138775;-68
2023/07/17 00:28:10;;;;;;;8.75;4.08;;;;;;;21.26;66.49;100669.55;5019364;57;1138666;-66
2023/07/17 00:33:16;;;;;;;10.00;5.90;;;;;;;21.13;66.58;100664.77;5019197;57;1138967;-64
2023/07/17 00:38:22;;;;;;;11.70;5.70;;;;;;;20.95;67.07;100669.14;5056398;57;1140785;-69
2023/07/17 00:43:27;;;;;;;11.75;5.35;;;;;;;20.89;67.74;100682.50;5011014;57;1140836;-68
2023/07/17 00:48:35;;;;;;;9.47;6.33;;;;;;;20.83;67.99;100663.89;5014199;56;1140814;-66
2023/07/17 00:53:42;;;;;;;10.67;6.70;;;;;;;20.76;68.20;100666.99;4981448;57;1138882;-65
2023/07/17 00:58:47;;;;;;;13.13;7.20;;;;;;;20.75;68.72;100668.00;5043112;57;1140734;-66
2023/07/17 01:03:59;;;;;;;12.68;7.60;;;;;;;20.71;68.78;100655.43;5054963;57;1140661;-67
2023/07/17 01:09:06;;;;;;;12.23;6.33;;;;;;;20.63;68.53;100649.27;5075132;57;1140949;-64
2023/07/17 01:14:21;;;;;;;9.20;5.30;;;;;;;20.52;69.09;100642.98;5055028;57;1140922;-66
2023/07/17 01:19:27;;;;;;;10.77;6.20;;;;;;;20.40;69.20;100639.06;5055083;57;1141136;-67
2023/07/17 01:24:32;;;;;;;9.23;5.33;;;;;;;20.29;69.78;100643.82;5042012;57;1141067;-66
2023/07/17 01:29:38;;;;;;;8.65;5.20;;;;;;;20.24;70.12;100642.67;5055346;57;1139024;-65
2023/07/17 01:34:44;;;;;;;9.37;5.20;;;;;;;20.22;70.37;100635.30;5054982;56;1138886;-65
2023/07/17 01:39:49;;;;;;;6.80;4.85;;;;;;;20.13;70.16;100625.12;5074781;57;1138701;-66
2023/07/17 01:44:55;;;;;;;9.25;5.40;;;;;;;20.09;70.75;100635.05;5054872;57;1138808;-66
2023/07/17 01:50:02;;;;;;;6.33;3.00;;;;;;;20.05;71.27;100643.96;5055422;57;1138680;-67
2023/07/17 01:55:09;;;;;;;5.62;4.00;;;;;;;19.89;71.41;100664.19;5075070;57;1138733;-68
2023/07/17 02:00:15;;;;;;;12.90;3.72;;;;;;;19.79;72.08;100664.92;5054505;57;1138651;-69
2023/07/17 02:05:20;;;;;;;6.72;3.72;;;;;;;19.75;72.24;100664.93;5055187;57;1141041;-65
2023/07/17 02:10:27;;;;;;;5.18;3.92;;;;;;;19.75;72.50;100663.59;5066085;57;1148652;-67
2023/07/17 02:15:32;;;;;;;6.25;4.20;;;;;;;19.74;72.78;100674.83;5055152;57;1138762;-67
2023/07/17 02:20:39;;;;;;;5.20;3.45;;;;;;;19.76;73.07;100686.23;5055305;57;1138725;-69
2023/07/17 02:25:44;;;;;;;6.15;4.03;;;;;;;19.73;73.14;100684.39;5013824;57;1138955;-68
2023/07/17 02:30:50;;;;;;;4.90;3.70;;;;;;;19.78;73.72;100686.89;4969259;57;1138748;-67
2023/07/17 02:35:56;;;;;;;5.33;3.55;;;;;;;19.82;73.79;100689.57;5001592;57;1138730;-69
2023/07/17 02:41:02;;;;;;;6.87;4.28;;;;;;;19.84;74.07;100694.77;5025078;56;1138608;-67
2023/07/17 02:46:08;;;;;;;6.83;3.60;;;;;;;19.81;74.02;100704.50;4973095;57;1139232;-67
2023/07/17 02:51:14;;;;;;;11.43;6.45;;;;;;;19.84;74.57;100709.03;5041540;56;1138835;-65
2023/07/17 02:56:19;;;;;;;7.17;5.03;;;;;;;19.87;74.68;100710.50;5054635;57;1140935;-67
2023/07/17 03:01:25;;;;;;;6.20;3.50;;;;;;;19.87;74.75;100713.19;5064040;57;1138439;-68
2023/07/17 03:06:31;;;;;;;6.58;4.53;;;;;;;19.88;75.00;100713.52;5042089;57;1138914;-67
2023/07/17 03:11:36;;;;;;;5.50;3.80;;;;;;;19.93;75.19;100703.10;5041815;57;1138795;-65
2023/07/17 03:16:42;;;;;;;8.00;3.40;;;;;;;19.95;75.24;100704.61;5061492;57;1138828;-67
2023/07/17 03:21:48;;;;;;;4.75;3.12;;;;;;;19.99;75.55;100716.67;5015297;57;1138888;-66
2023/07/17 03:26:54;;;;;;;4.78;3.20;;;;;;;19.96;75.18;100717.02;5015369;57;1138701;-68
2023/07/17 03:32:00;;;;;;;7.08;3.42;;;;;;;19.86;75.21;100722.27;5038596;57;1138716;-68
2023/07/17 03:37:06;;;;;;;6.80;3.17;;;;;;;19.74;75.78;100719.11;5032731;57;1138732;-69
2023/07/17 03:42:11;;;;;;;5.47;3.83;;;;;;;19.67;75.69;100716.80;5015270;57;1138866;-65
2023/07/17 03:47:17;;;;;;;3.73;3.27;;;;;;;19.76;77.17;100722.46;4969798;57;1139110;-67
2023/07/17 03:52:23;;;;;;;8.48;3.75;;;;;;;19.90;77.83;100712.34;4979056;58;1138576;-65
2023/07/17 03:57:29;;;;;;;5.25;4.22;;;;;;;20.00;78.31;100710.80;4961637;58;1138633;-68
2023/07/17 04:02:34;;;;;;;5.50;3.67;;;;;;;20.03;78.70;100706.39;4945930;57;1138601;-65
2023/07/17 04:07:40;;;;;;;4.00;3.50;;;;;;;20.05;78.10;100712.94;4979681;57;1138779;-66
2023/07/17 04:12:47;;;;;;;7.35;2.85;;;;;;;19.94;78.42;100716.35;4960287;57;1138787;-68
2023/07/17 04:17:53;;;;;;;8.78;4.05;;;;;;;19.84;79.45;100715.73;4959826;57;1139120;-66
2023/07/17 04:22:58;;;;;;;5.83;3.50;;;;;;;19.73;79.57;100718.77;4992533;57;1138667;-65
2023/07/17 04:28:04;;;;;;;8.23;3.42;;;;;;;19.71;80.06;100716.77;5041497;57;1138617;-68
2023/07/17 04:33:11;;;;;;;12.23;3.90;;;;;;;19.78;80.42;100716.92;5011397;57;1139109;-67
2023/07/17 04:38:16;;;;;;;5.13;3.13;;;;;;;19.88;80.42;100712.17;5001253;57;1140748;-66
2023/07/17 04:43:22;;;;;;;6.08;3.70;;;;;;;20.03;80.71;100697.84;5046512;56;1138862;-68
2023/07/17 04:48:28;;;;;;;4.10;3.70;;;;;;;20.16;79.75;100689.23;5054957;57;1138643;-66
2023/07/17 04:53:34;;;;;;;13.38;4.97;;;;;;;20.24;80.79;100682.95;4892636;58;1138849;-68
2023/07/17 04:58:40;;;;;;;10.88;5.08;;;;;;;20.30;80.43;100696.53;5042908;56;1140859;-65
2023/07/17 05:03:45;;;;;;;6.40;3.95;;;;;;;20.34;80.23;100693.80;5041221;56;1141052;-67
2023/07/17 05:08:52;;;;;;;5.53;3.58;;;;;;;20.39;79.63;100686.58;5045925;57;1138894;-65
2023/07/17 05:13:58;;;;;;;5.75;3.08;;;;;;;20.49;78.64;100684.48;5041038;57;1138658;-67
2023/07/17 05:19:04;;;;;;;5.50;2.83;;;;;;;20.61;78.10;100684.42;4999968;57;1138708;-67
2023/07/17 05:24:11;;;;;;;6.50;2.85;;;;;;;20.77;77.90;100686.14;5037020;56;1138869;-67
2023/07/17 05:29:17;;;;;;;7.40;3.33;;;;;;;20.97;77.36;100689.13;4979648;57;1138811;-66
2023/07/17 05:34:24;;;;;;;5.80;3.05;;;;;;;21.19;77.25;100689.63;5005407;57;1138843;-67
2023/07/17 05:39:29;;;;;;;4.92;2.90;;;;;;;21.38;75.28;100682.38;5028430;57;1138869;-67
2023/07/17 05:44:35;;;;;;;4.53;3.20;;;;;;;21.58;73.70;100670.52;5034644;57;1138810;-68
2023/07/17 05:49:42;;;;;;;6.65;2.85;;;;;;;21.81;72.71;100682.53;5072587;57;1138708;-67
2023/07/17 05:54:48;;;;;;;10.03;3.50;;;;;;;22.00;72.37;100675.72;5051789;57;1138646;-67
2023/07/17 05:59:55;;;;;;;6.72;2.90;;;;;;;22.17;71.67;100673.64;5052195;57;1140826;-67
2023/07/17 06:05:01;;;;;;;8.63;2.62;;;;;;;22.36;71.20;100682.45;5018184;57;1139002;-66
2023/07/17 06:10:07;;;;;;;3.87;2.70;;;;;;;22.56;69.07;100679.45;5022592;57;1139121;-68
2023/07/17 06:15:14;;;;;;;6.35;2.60;;;;;;;22.78;68.00;100685.68;5040997;56;1139015;-65
2023/07/17 06:20:20;;;;;;;7.17;2.37;;;;;;;23.05;67.67;100687.59;5040464;57;1139025;-66
2023/07/17 06:25:26;;;;;;;5.60;2.85;;;;;;;23.25;64.84;100680.13;5028344;56;1138732;-69
2023/07/17 06:30:33;;;;;;;5.40;2.65;;;;;;;23.44;65.34;100680.26;4964802;57;1138856;-69
2023/07/17 06:35:40;;;;;;;10.40;2.60;;;;;;;23.67;64.79;100677.31;4975044;56;1138659;-69
2023/07/17 06:40:46;;;;;;;7.20;3.12;;;;;;;23.87;63.66;100669.28;5056428;56;1140975;-65
2023/07/17 06:45:51;;;;;;;3.33;2.37;;;;;;;24.08;62.84;100675.08;5023119;56;1138802;-69
2023/07/17 06:50:58;;;;;;;6.03;2.87;;;;;;;24.27;61.49;100667.58;5027756;56;1138874;-69
2023/07/17 06:56:04;;;;;;;2.50;2.30;;;;;;;24.48;60.57;100666.03;5057492;57;1138661;-66
2023/07/17 07:01:11;;;;;;;7.67;2.72;;;;;;;24.68;60.67;100660.66;5028004;56;1138627;-70
2023/07/17 07:06:17;;;;;;;5.20;2.80;;;;;;;25.02;57.92;100668.28;5058095;56;1138869;-66
2023/07/17 07:11:22;;;;;;;8.37;2.60;;;;;;;25.29;57.46;100668.55;5033304;56;1138983;-66
2023/07/17 07:16:29;;;;;;;5.47;2.77;;;;;;;25.31;53.71;100669.17;5076728;56;1138865;-68
2023/07/17 07:21:34;;;;;;;4.67;2.45;;;;;;;25.33;51.11;100667.61;5055195;56;1138730;-67
2023/07/17 07:26:40;;;;;;;15.75;2.22;;;;;;;25.30;50.01;100661.26;5056594;56;1138831;-67
2023/07/17 07:31:46;;;;;;;5.67;2.67;;;;;;;25.35;50.61;100665.53;5076380;56;1140838;-67
2023/07/17 07:36:51;;;;;;;9.00;2.58;;;;;;;25.38;47.96;100674.55;5056841;56;1138817;-69
2023/07/17 07:41:57;;;;;;;5.75;2.80;;;;;;;25.46;46.84;100671.63;5056766;56;1138674;-66
2023/07/17 07:47:05;;;;;;;4.67;2.80;;;;;;;25.54;49.55;100674.09;5046446;56;1138789;-70
2023/07/17 07:52:09;;;;;;;5.92;2.67;;;;;;;25.77;49.35;100672.30;5023668;56;1138971;-68
2023/07/17 07:57:15;;;;;;;10.20;2.52;;;;;;;26.03;48.00;100668.09;5054607;56;1139008;-67
2023/07/17 08:02:23;;;;;;;8.45;3.27;;;;;;;26.22;41.17;100667.17;5056133;56;1141148;-68
2023/07/17 08:07:28;;;;;;;16.20;14.35;;;;;;;26.37;43.67;100668.25;5002418;56;1138587;-68
2023/07/17 08:12:34;;;;;;;14.90;4.30;;;;;;;26.41;40.60;100665.94;5028761;57;1142999;-67
2023/07/17 08:17:40;;;;;;;6.35;2.20;;;;;;;26.41;40.18;100658.64;4972700;57;1150398;-65
2023/07/17 08:22:46;;;;;;;8.18;2.92;;;;;;;26.51;41.16;100646.77;5026569;57;1138939;-66
2023/07/17 08:27:52;;;;;;;6.60;3.00;;;;;;;26.65;41.67;100648.84;5054737;57;1138714;-63
2023/07/17 08:32:57;;;;;;;7.67;3.92;;;;;;;26.93;41.42;100650.61;5050821;57;1138985;-65
2023/07/17 08:38:04;;;;;;;9.43;3.55;;;;;;;27.11;37.31;100651.18;5009255;57;1138764;-66
2023/07/17 08:43:09;;;;;;;6.85;3.83;;;;;;;27.10;37.94;100643.26;5033311;57;1138564;-67
2023/07/17 08:48:18;;;;;;;8.03;2.98;;;;;;;27.40;39.04;100653.70;5054642;56;1138820;-66
2023/07/17 08:53:27;;;;;;;7.50;2.87;;;;;;;27.58;38.06;100651.02;5044466;56;1138755;-66
2023/07/17 08:58:33;;;;;;;5.60;2.70;;;;;;;27.57;38.95;100633.58;5041970;56;1138725;-65
2023/07/17 09:03:38;;;;;;;3.22;2.65;;;;;;;27.71;35.47;100639.14;5044922;56;1138975;-66
2023/07/17 09:08:44;;;;;;;5.60;2.63;;;;;;;27.88;36.85;100641.54;5049045;56;1139101;-67
2023/07/17 09:13:53;;;;;;;10.18;2.85;;;;;;;27.93;36.75;100638.14;5092483;56;1138870;-67
2023/07/17 09:19:00;;;;;;;5.37;2.80;;;;;;;28.01;34.98;100655.48;5072255;56;1140960;-68
2023/07/17 09:24:05;;;;;;;4.70;2.55;;;;;;;28.08;34.99;100648.08;5068271;56;1138784;-67
2023/07/17 09:29:14;;;;;;;8.88;3.30;;;;;;;28.11;35.90;100652.23;5105368;56;1139045;-67
2023/07/17 09:34:20;;;;;;;6.50;2.65;;;;;;;28.19;35.65;100649.20;5117192;56;1138778;-65
2023/07/17 09:39:26;;;;;;;6.78;3.05;;;;;;;28.32;34.55;100652.55;5040175;57;1138700;-68
2023/07/17 09:44:33;;;;;;;2.40;2.20;;;;;;;28.20;35.54;100654.41;5023063;57;1138758;-71
2023/07/17 09:49:40;;;;;;;2.47;2.15;;;;;;;27.89;36.07;100651.36;5036798;56;1138694;-69
2023/07/17 09:54:48;;;;;;;6.03;2.77;;;;;;;27.52;36.03;100656.48;5054691;56;1138792;-70
2023/07/17 09:59:56;;;;;;;3.67;2.55;;;;;;;27.66;36.42;100645.25;5009189;57;1138753;-70
2023/07/17 10:05:05;;;;;;;6.75;2.98;;;;;;;27.77;36.72;100639.60;5074359;56;1138834;-71
2023/07/17 10:10:12;;;;;;;3.77;2.87;;;;;;;28.03;34.65;100638.41;5040019;56;1138732;-72
2023/07/17 10:15:18;;;;;;;5.33;3.00;;;;;;;28.14;36.62;100640.33;4973417;57;1138885;-67
2023/07/17 10:20:24;;;;;;;6.87;2.70;;;;;;;28.11;35.77;100639.99;4976192;57;1139007;-73
2023/07/17 10:25:30;;;;;;;7.67;2.90;;;;;;;28.04;37.00;100645.51;5074347;57;1138933;-69
2023/07/17 10:30:38;;;;;;;8.43;3.22;;;;;;;27.98;36.11;100632.30;5045798;56;1138731;-71
2023/07/17 10:36:00;;;;;;;3.70;2.15;;;;;;;28.07;36.96;100632.81;4967008;57;1138729;-69
2023/07/17 10:41:18;;;;;;;4.72;2.60;;;;;;;27.99;36.51;100630.41;5016630;56;1138625;-68
2023/07/17 10:46:34;;;;;;;7.63;3.53;;;;;;;27.97;35.03;100633.87;4972747;57;1138924;-70
2023/07/17 10:51:45;;;;;;;8.13;3.47;;;;;;;27.82;36.06;100630.73;4972469;57;1138755;-67
2023/07/17 10:56:52;;;;;;;7.30;3.22;;;;;;;28.12;36.19;100628.86;4992053;57;1138862;-71
2023/07/17 11:02:01;;;;;;;3.85;3.08;;;;;;;28.15;34.47;100612.08;4972089;57;1138794;-67
2023/07/17 11:07:12;;;;;;;6.25;3.92;;;;;;;28.19;35.78;100620.11;4996335;57;1138743;-73
2023/07/17 11:12:20;;;;;;;11.43;3.97;;;;;;;28.46;35.24;100600.65;5054170;57;1138828;-68
2023/07/17 11:17:25;;;;;;;7.97;3.35;;;;;;;28.61;34.36;100599.13;5071155;57;1140851;-71
2023/07/17 11:22:32;;;;;;;5.95;3.33;;;;;;;28.70;34.08;100599.63;5016156;57;1138783;-70
2023/07/17 11:27:40;;;;;;;5.22;3.33;;;;;;;28.85;34.40;100602.74;4952989;58;1138790;-68
2023/07/17 11:33:00;;;;;;;5.28;3.58;;;;;;;29.02;33.08;100613.75;4953872;58;1139170;-66
2023/07/17 11:38:20;;;;;;;7.80;3.65;;;;;;;28.87;32.00;100597.06;5034569;57;1138758;-69
2023/07/17 11:43:29;;;;;;;6.12;3.65;;;;;;;28.50;31.88;100591.80;4996704;57;1138718;-70
2023/07/17 11:48:37;;;;;;;6.60;4.00;;;;;;;28.51;33.65;100589.91;5039144;57;1138697;-67
2023/07/17 11:53:48;;;;;;;7.42;4.42;;;;;;;28.72;33.60;100587.98;5070885;56;1138970;-68
2023/07/17 11:58:53;;;;;;;9.05;3.80;;;;;;;29.00;32.74;100577.22;5053862;57;1138841;-69
2023/07/17 12:04:21;;;;;;;4.50;3.33;;;;;;;29.21;32.75;100578.47;5047764;57;1138619;-68
2023/07/17 12:09:26;;;;;;;6.70;4.67;;;;;;;29.23;30.88;100565.98;5054959;57;1138835;-67
2023/07/17 12:14:32;;;;;;;10.88;3.90;;;;;;;29.43;31.17;100575.15;5059138;56;1138730;-69
2023/07/17 12:19:38;;;;;;;8.75;3.87;;;;;;;29.48;28.71;100574.73;5031186;56;1140911;-70
2023/07/17 12:24:44;;;;;;;7.40;4.22;;;;;;;28.99;29.19;100570.65;5000198;57;1138823;-70
2023/07/17 12:29:50;;;;;;;9.98;3.90;;;;;;;29.02;30.80;100559.28;5074178;57;1139056;-70
2023/07/17 12:34:55;;;;;;;9.58;4.08;;;;;;;29.30;30.74;100557.14;5051236;56;1138818;-69
2023/07/17 12:40:01;;;;;;;9.35;4.50;;;;;;;29.42;29.26;100562.59;5054741;57;1138802;-68
2023/07/17 12:45:08;;;;;;;4.42;3.98;;;;;;;29.32;29.22;100556.38;5046575;57;1138686;-69
2023/07/17 12:50:13;;;;;;;9.85;4.12;;;;;;;29.41;28.47;100539.13;4972479;57;1138855;-69
2023/07/17 12:55:19;;;;;;;8.20;4.90;;;;;;;29.41;27.98;100556.84;5021736;56;1139039;-70
2023/07/17 13:00:25;;;;;;;10.25;4.45;;;;;;;29.54;28.79;100549.20;5047889;56;1139097;-67
2023/07/17 13:05:30;;;;;;;4.55;4.10;;;;;;;29.37;29.18;100555.09;5020557;56;1141045;-71
2023/07/17 13:10:36;;;;;;;8.25;4.30;;;;;;;29.48;28.43;100554.29;4958469;57;1138852;-70
2023/07/17 13:15:42;;;;;;;6.58;3.92;;;;;;;29.48;29.35;100551.56;5072098;57;1138509;-69
2023/07/17 13:20:47;;;;;;;9.30;3.67;;;;;;;29.79;29.87;100557.59;5026638;56;1138805;-68
2023/07/17 13:25:53;;;;;;;8.30;3.73;;;;;;;29.71;29.13;100552.81;5042134;57;1138576;-69
2023/07/17 13:30:58;;;;;;;7.20;4.00;;;;;;;29.65;28.91;100562.49;5057549;57;1138468;-68
2023/07/17 13:36:04;;;;;;;6.13;4.00;;;;;;;29.50;29.42;100564.38;5036182;56;1138632;-69
2023/07/17 13:41:44;;;;;;;8.35;4.50;;;;;;;29.26;29.34;100561.41;5043806;56;1138838;-68
2023/07/17 13:46:50;;;;;;;5.53;4.00;;;;;;;29.43;29.95;100560.16;5045618;57;1138800;-68
2023/07/17 13:51:56;;;;;;;7.30;4.15;;;;;;;29.77;29.61;100579.66;5009400;57;1138847;-69
2023/07/17 13:57:01;;;;;;;6.50;4.20;;;;;;;29.71;28.46;100588.80;5013820;56;1138652;-71
2023/07/17 14:02:08;;;;;;;4.30;3.90;;;;;;;29.66;28.11;100572.33;5033324;57;1139037;-67
2023/07/17 14:07:13;;;;;;;11.33;4.45;;;;;;;29.24;27.97;100576.64;5063690;56;1138653;-67
2023/07/17 14:12:20;;;;;;;8.60;3.75;;;;;;;29.17;29.10;100569.67;5159901;56;1141101;-70
2023/07/17 14:17:25;;;;;;;6.40;4.45;;;;;;;29.34;29.41;100580.92;5139789;56;1138746;-69
2023/07/17 14:22:31;;;;;;;8.60;4.10;;;;;;;29.42;29.71;100564.78;5095830;56;1138611;-68
2023/07/17 14:27:36;;;;;;;8.23;3.90;;;;;;;29.56;28.11;100568.05;5072677;56;1138635;-69
2023/07/17 14:32:42;;;;;;;4.15;3.40;;;;;;;29.54;26.71;100563.38;5020284;56;1138848;-71
2023/07/17 14:37:48;;;;;;;5.62;3.95;;;;;;;29.58;26.55;100570.83;4972560;57;1138957;-67
2023/07/17 14:42:54;;;;;;;7.80;3.52;;;;;;;29.33;26.38;100568.94;5072658;56;1138729;-66
2023/07/17 14:48:00;;;;;;;5.30;3.10;;;;;;;29.43;26.66;100568.33;5032268;56;1138853;-69
2023/07/17 14:53:05;;;;;;;9.20;3.67;;;;;;;29.53;26.70;100563.91;5049170;56;1138922;-70
2023/07/17 14:58:11;;;;;;;4.42;3.12;;;;;;;29.19;27.15;100573.80;5053971;56;1138517;-69
2023/07/17 15:03:16;;;;;;;4.62;2.87;;;;;;;28.92;27.57;100561.23;5052458;57;1138371;-67
2023/07/17 15:08:22;;;;;;;9.07;3.53;;;;;;;29.15;27.37;100556.83;4992661;57;1138703;-71
2023/07/17 15:13:28;;;;;;;6.12;3.65;;;;;;;29.23;27.72;100549.09;4990079;57;1138814;-68
2023/07/17 15:18:33;;;;;;;6.33;3.08;;;;;;;29.24;27.57;100552.11;4970602;57;1138763;-68
2023/07/17 15:23:39;;;;;;;9.35;3.08;;;;;;;29.19;27.14;100549.81;4995923;57;1138946;-68
2023/07/17 15:28:44;;;;;;;3.67;2.72;;;;;;;28.95;27.65;100547.14;5074211;57;1138950;-69
2023/07/17 15:33:54;;;;;;;3.70;3.42;;;;;;;29.01;26.73;100539.92;5028737;57;1138598;-71
2023/07/17 15:38:58;;;;;;;6.60;3.20;;;;;;;29.21;26.99;100528.08;4988777;57;1138597;-68
2023/07/17 15:44:04;;;;;;;8.38;3.17;;;;;;;29.29;27.52;100524.98;5071074;57;1138966;-71
2023/07/17 15:49:10;;;;;;;4.45;3.33;;;;;;;29.36;28.85;100518.02;5053997;56;1138863;-71
2023/07/17 15:54:16;;;;;;;3.87;3.15;;;;;;;29.37;28.20;100514.23;5019476;56;1138995;-71
2023/07/17 15:59:22;;;;;;;7.55;3.77;;;;;;;29.35;28.01;100511.73;4969043;57;1138780;-67
2023/07/17 16:04:28;;;;;;;3.42;2.85;;;;;;;29.19;27.56;100517.95;4987808;57;1138690;-67
2023/07/17 16:09:34;;;;;;;6.78;3.33;;;;;;;28.93;26.57;100519.85;4968031;57;1138862;-68
2023/07/17 16:14:43;;;;;;;5.95;2.98;;;;;;;28.77;26.76;100515.11;4968726;57;1138803;-72
2023/07/17 16:19:48;;;;;;;4.55;3.50;;;;;;;28.65;27.51;100512.41;4988019;57;1138814;-67
2023/07/17 16:24:54;;;;;;;8.68;3.52;;;;;;;28.42;27.62;100522.74;5049042;56;1138731;-68
2023/07/17 16:30:00;;;;;;;7.92;3.35;;;;;;;28.21;28.44;100531.48;5051686;57;1138796;-70
2023/07/17 16:35:06;;;;;;;14.23;3.37;;;;;;;28.06;28.51;100535.16;4993701;57;1138968;-69
2023/07/17 16:40:12;;;;;;;6.10;3.65;;;;;;;27.93;28.84;100532.11;5006243;57;1140870;-68
2023/07/17 16:45:17;;;;;;;5.87;3.12;;;;;;;27.83;28.62;100531.30;5052272;56;1138785;-67
2023/07/17 16:50:23;;;;;;;8.83;3.67;;;;;;;27.77;29.22;100534.12;5052986;56;1138838;-68
2023/07/17 16:55:30;;;;;;;11.97;3.90;;;;;;;27.72;29.55;100539.42;5016455;57;1138929;-69
2023/07/17 17:00:35;;;;;;;3.50;2.33;;;;;;;27.68;29.93;100542.29;4966395;57;1141128;-69
2023/07/17 17:05:41;;;;;;;4.70;3.47;;;;;;;27.67;30.51;100544.17;4968993;57;1138752;-68
2023/07/17 17:10:47;;;;;;;5.22;4.12;;;;;;;27.58;30.43;100528.73;4990353;57;1138897;-70
2023/07/17 17:15:53;;;;;;;8.05;3.72;;;;;;;27.48;29.85;100535.23;4959761;57;1138802;-71
2023/07/17 17:20:58;;;;;;;6.50;3.60;;;;;;;27.42;30.90;100538.85;4956550;57;1138897;-71
2023/07/17 17:26:04;;;;;;;18.40;4.10;;;;;;;27.34;31.10;100527.48;4989567;57;1138687;-71
2023/07/17 17:31:10;;;;;;;14.20;4.70;;;;;;;27.34;31.53;100535.63;4973980;57;1140912;-71
2023/07/17 17:36:16;;;;;;;5.45;3.50;;;;;;;27.25;31.41;100535.92;5041526;57;1140717;-66
2023/07/17 17:41:22;;;;;;;6.40;3.80;;;;;;;27.22;32.29;100531.47;4959929;58;1139029;-67
2023/07/17 17:46:29;;;;;;;4.40;3.70;;;;;;;27.18;32.56;100533.84;5065188;56;1138941;-69
2023/07/17 17:51:34;;;;;;;5.95;3.92;;;;;;;27.12;32.49;100533.91;5106890;56;1138754;-70
2023/07/17 17:56:40;;;;;;;8.05;3.55;;;;;;;27.00;32.53;100533.83;5049211;56;1138830;-63
2023/07/17 18:01:46;;;;;;;9.70;3.90;;;;;;;26.92;33.11;100545.77;5060425;57;1139047;-70
2023/07/17 18:06:51;;;;;;;4.80;3.40;;;;;;;26.82;33.04;100541.92;5040760;57;1139096;-72
2023/07/17 18:11:57;;;;;;;7.87;4.10;;;;;;;26.69;33.56;100546.97;5041047;57;1138713;-66
2023/07/17 18:17:02;;;;;;;9.60;3.37;;;;;;;26.57;33.88;100543.34;5060779;57;1138688;-69
2023/07/17 18:22:08;;;;;;;14.45;3.98;;;;;;;26.48;34.31;100544.65;5018180;57;1138939;-70
2023/07/17 18:27:14;;;;;;;7.90;3.33;;;;;;;26.34;34.61;100549.36;5090655;56;1140894;-68
2023/07/17 18:32:20;;;;;;;8.93;3.92;;;;;;;26.33;35.15;100551.77;5036134;56;1138960;-67
2023/07/17 18:37:26;;;;;;;7.17;3.85;;;;;;;26.39;35.46;100548.18;5061136;57;1138697;-69
2023/07/17 18:42:31;;;;;;;36.42;6.40;;;;;;;26.47;35.60;100552.48;5013195;57;1138803;-71
2023/07/17 18:47:37;;;;;;;19.20;4.62;;;;;;;26.46;35.89;100555.72;5008855;57;1140901;-69
2023/07/17 18:52:43;;;;;;;12.20;4.80;;;;;;;26.48;36.57;100557.69;5053802;57;1140739;-69
2023/07/17 18:57:48;;;;;;;14.68;7.60;;;;;;;26.52;37.34;100566.22;5106160;56;1140420;-69
2023/07/17 19:02:55;;;;;;;17.74;11.28;;;;;;;26.63;37.89;100565.48;4879104;58;1141208;-69
2023/07/17 19:08:05;;;;;;;17.77;12.05;;;;;;;26.65;37.54;100569.33;5025621;57;1143024;-71
2023/07/17 19:13:15;;;;;;;13.67;5.93;;;;;;;26.46;37.56;100567.09;5029248;57;1143158;-69
2023/07/17 19:18:22;;;;;;;11.25;4.12;;;;;;;26.31;37.61;100570.14;5053857;56;1140910;-68
2023/07/17 19:23:28;;;;;;;14.33;4.42;;;;;;;26.12;37.84;100573.29;5054502;57;1140947;-70
2023/07/17 19:28:33;;;;;;;12.10;4.50;;;;;;;26.01;38.28;100577.20;5064505;56;1140998;-68
2023/07/17 19:33:39;;;;;;;13.35;3.55;;;;;;;25.90;38.83;100578.22;4994051;57;1140962;-68
2023/07/17 19:38:45;;;;;;;17.52;4.45;;;;;;;25.78;38.87;100584.55;4987314;57;1140680;-68
2023/07/17 19:43:50;;;;;;;8.85;4.25;;;;;;;25.64;39.21;100593.27;5003144;57;1141114;-67
2023/07/17 19:48:56;;;;;;;13.15;4.95;;;;;;;25.50;39.37;100594.34;4977783;57;1138862;-71
2023/07/17 19:54:02;;;;;;;8.00;4.53;;;;;;;25.37;40.03;100603.84;5011157;56;1140972;-68
2023/07/17 19:59:08;;;;;;;7.47;4.90;;;;;;;25.33;40.69;100606.69;5028472;56;1138984;-68
2023/07/17 20:04:14;;;;;;;8.50;4.57;;;;;;;25.28;41.11;100599.72;5052139;57;1138584;-68
2023/07/17 20:09:20;;;;;;;5.40;4.05;;;;;;;25.35;44.06;100601.38;5052501;56;1138908;-69
2023/07/17 20:14:26;;;;;;;23.27;5.05;;;;;;;25.44;44.16;100600.60;5070288;56;1138786;-66
2023/07/17 20:19:31;;;;;;;8.08;4.10;;;;;;;25.43;44.69;100603.00;5047925;56;1140987;-69
2023/07/17 20:24:42;;;;;;;10.93;4.90;;;;;;;25.45;44.83;100607.69;5020669;56;1138664;-67
2023/07/17 20:29:45;;;;;;;15.98;4.37;;;;;;;25.30;43.93;100605.23;4940400;58;1141167;-70
2023/07/17 20:34:54;;;;;;;13.03;5.17;;;;;;;25.33;44.77;100607.52;5050504;56;1141054;-68
2023/07/17 20:40:01;;;;;;;10.72;4.85;;;;;;;25.34;44.15;100610.54;5052049;56;1257293;-71
2023/07/17 20:45:08;;;;;;;11.12;4.55;;;;;;;25.36;43.82;100613.84;5068866;56;1140730;-70
2023/07/17 20:50:14;;;;;;;5.27;4.10;;;;;;;25.27;43.93;100609.72;5054754;56;1140691;-71
2023/07/17 20:55:21;;;;;;;8.90;4.13;;;;;;;25.23;44.71;100607.95;5055183;56;1138836;-74
2023/07/17 21:00:27;;;;;;;19.90;4.03;;;;;;;25.15;44.69;100613.61;5075207;56;1138755;-68
2023/07/17 21:05:33;;;;;;;9.83;4.08;;;;;;;25.09;45.52;100619.84;5055224;56;1140845;-70
2023/07/17 21:10:39;;;;;;;9.28;3.55;;;;;;;25.03;45.71;100620.71;5054832;56;1138941;-71
2023/07/17 21:15:45;;;;;;;6.12;3.50;;;;;;;24.94;46.56;100627.37;5074696;57;1138760;-72
2023/07/17 21:20:51;;;;;;;10.65;3.40;;;;;;;24.74;47.09;100644.13;5044035;57;1138825;-69
2023/07/17 21:25:57;;;;;;;6.03;3.52;;;;;;;24.61;47.15;100637.33;4973145;57;1140917;-68
2023/07/17 21:31:03;;;;;;;9.75;2.85;;;;;;;24.39;47.60;100639.41;5011990;57;1139209;-71
2023/07/17 21:36:08;;;;;;;9.15;3.58;;;;;;;24.23;48.74;100634.36;5048516;57;1138847;-69
2023/07/17 21:41:14;;;;;;;6.87;3.85;;;;;;;24.00;49.10;100661.21;4960372;58;1138717;-72
2023/07/17 21:46:20;;;;;;;9.45;3.70;;;;;;;23.98;50.25;100660.61;4881665;58;1138817;-71
2023/07/17 21:51:25;;;;;;;6.83;3.65;;;;;;;23.90;50.85;100673.45;5061753;57;1138503;-69
2023/07/17 21:56:31;;;;;;;53.20;30.50;;;;;;;23.75;52.04;100715.45;5041251;57;1138624;-74
2023/07/17 22:01:37;;;;;;;20.27;8.48;;;;;;;23.55;53.90;100705.89;4964704;57;1142800;-71
2023/07/17 22:06:42;;;;;;;4.33;3.92;;;;;;;23.42;55.82;100728.72;4974698;58;1140875;-72
2023/07/17 22:11:48;;;;;;;15.18;9.05;;;;;;;23.21;57.66;100722.05;5016697;57;1138748;-70
2023/07/17 22:16:54;;;;;;;14.30;6.25;;;;;;;23.26;59.46;100728.52;5018327;57;1140967;-74
2023/07/17 22:21:59;;;;;;;16.30;4.97;;;;;;;23.31;61.71;100730.62;5046319;57;1140825;-71
2023/07/17 22:27:05;;;;;;;9.45;5.28;;;;;;;23.06;62.74;100742.38;5041397;57;1140873;-70
2023/07/17 22:32:11;;;;;;;39.27;11.40;;;;;;;22.96;65.47;100732.42;5029833;57;1138810;-69
2023/07/17 22:37:20;;;;;;;8.63;4.60;;;;;;;22.83;67.84;100735.00;5025240;57;1143406;-70
2023/07/17 22:42:24;;;;;;;10.25;5.17;;;;;;;22.71;68.86;100734.66;5075998;57;1138679;-71
2023/07/17 22:47:30;;;;;;;7.47;4.40;;;;;;;22.62;69.27;100746.06;4974135;58;1140773;-70
2023/07/17 22:52:35;;;;;;;10.40;3.75;;;;;;;22.43;69.18;100758.84;5056916;57;1138598;-70
2023/07/17 22:57:43;;;;;;;5.47;4.08;;;;;;;22.26;68.95;100765.47;4993699;58;1140729;-70
2023/07/17 23:02:49;;;;;;;8.58;4.33;;;;;;;22.14;69.27;100773.72;5056402;57;1138692;-70
2023/07/17 23:07:55;;;;;;;6.80;4.72;;;;;;;22.15;69.49;100781.62;5056732;57;1138773;-72